createdAt,value
2022-09-15T00:01:54.993Z,30.08
2022-09-15T00:05:01.224Z,23.15
2022-09-15T00:08:06.489Z,32.50
2022-09-15T00:11:24.433Z,25.60
2022-09-15T00:14:30.148Z,26.75
2022-09-15T00:17:36.342Z,31.63
2022-09-15T00:20:44.227Z,23.00
2022-09-15T00:23:50.957Z,25.20
2022-09-15T00:26:57.607Z,36.65
2022-09-15T00:30:05.196Z,31.55
2022-09-15T00:33:12.487Z,26.55
2022-09-15T00:36:19.346Z,26.90
2022-09-15T00:39:25.794Z,26.52
2022-09-15T00:42:31.639Z,27.48
2022-09-15T00:45:37.567Z,31.80
2022-09-15T00:48:52.939Z,25.48
2022-09-15T00:52:04.241Z,27.83
2022-09-15T00:55:26.054Z,25.55
2022-09-15T00:58:38.683Z,24.00
2022-09-15T01:01:47.207Z,29.73
2022-09-15T01:04:58.222Z,25.38
2022-09-15T01:08:19.278Z,24.67
2022-09-15T01:11:25.115Z,29.02
2022-09-15T01:14:30.814Z,26.10
2022-09-15T01:18:13.340Z,24.80
2022-09-15T01:21:37.000Z,29.38
2022-09-15T01:25:15.951Z,27.42
2022-09-15T01:28:47.764Z,28.60
2022-09-15T01:32:43.822Z,34.20
2022-09-15T01:36:10.780Z,26.70
2022-09-15T01:44:15.504Z,30.60
2022-09-15T01:47:23.297Z,29.27
2022-09-15T01:50:36.922Z,27.85
2022-09-15T01:53:42.147Z,29.83
2022-09-15T01:56:48.725Z,31.23
2022-09-15T01:59:56.325Z,29.08
2022-09-15T02:03:12.167Z,29.10
2022-09-15T02:06:22.233Z,28.83
2022-09-15T02:09:36.809Z,33.60
2022-09-15T02:12:48.269Z,22.88
2022-09-15T02:19:31.596Z,26.15
2022-09-15T02:22:41.093Z,28.75
2022-09-15T02:25:51.964Z,23.05
2022-09-15T02:29:03.768Z,33.95
2022-09-15T02:32:11.901Z,27.88
2022-09-15T02:35:17.562Z,25.67
2022-09-15T02:38:23.963Z,26.77
2022-09-15T02:41:29.870Z,22.55
2022-09-15T02:44:35.580Z,27.58
2022-09-15T02:47:41.120Z,32.17
2022-09-15T02:50:46.619Z,20.88
2022-09-15T02:53:53.666Z,26.63
2022-09-15T02:57:00.412Z,27.58
2022-09-15T03:00:13.374Z,21.80
2022-09-15T03:03:20.397Z,22.90
2022-09-15T03:06:25.872Z,21.42
2022-09-15T03:09:31.341Z,23.08
2022-09-15T03:12:41.700Z,24.70
2022-09-15T03:15:47.253Z,28.87
2022-09-15T03:18:56.067Z,30.17
2022-09-15T03:22:01.247Z,32.35
2022-09-15T03:25:07.781Z,26.88
2022-09-15T03:28:13.166Z,26.20
2022-09-15T03:31:20.207Z,22.55
2022-09-15T03:34:25.845Z,23.02
2022-09-15T03:37:31.628Z,21.77
2022-09-15T03:40:38.334Z,27.02
2022-09-15T03:43:44.100Z,21.35
2022-09-15T03:46:49.670Z,23.85
2022-09-15T03:49:55.762Z,24.95
2022-09-15T03:53:01.871Z,23.45
2022-09-15T03:56:26.086Z,26.48
2022-09-15T03:59:31.503Z,22.40
2022-09-15T04:02:38.162Z,23.45
2022-09-15T04:05:43.687Z,20.48
2022-09-15T04:08:50.919Z,24.73
2022-09-15T04:11:56.723Z,19.52
2022-09-15T04:15:03.038Z,19.20
2022-09-15T04:18:08.181Z,22.15
2022-09-15T04:21:16.293Z,21.15
2022-09-15T04:24:21.954Z,18.70
2022-09-15T04:27:28.246Z,22.77
2022-09-15T04:30:33.953Z,24.77
2022-09-15T04:33:41.227Z,41.85
2022-09-15T04:36:46.888Z,20.95
2022-09-15T04:39:52.728Z,25.67
2022-09-15T04:42:58.508Z,20.65
2022-09-15T04:46:04.302Z,21.10
2022-09-15T04:49:09.885Z,21.95
2022-09-15T04:52:15.117Z,33.28
2022-09-15T04:55:20.729Z,19.55
2022-09-15T04:58:26.045Z,24.17
2022-09-15T05:01:34.596Z,28.67
2022-09-15T05:04:40.498Z,23.08
2022-09-15T05:07:47.896Z,20.73
2022-09-15T05:10:53.806Z,28.98
2022-09-15T05:14:00.197Z,22.17
2022-09-15T05:17:06.031Z,22.60
2022-09-15T05:20:11.774Z,26.50
2022-09-15T05:23:17.608Z,25.77
2022-09-15T05:26:26.120Z,28.10
2022-09-15T05:29:31.760Z,30.42
2022-09-15T05:32:37.511Z,28.38
2022-09-15T05:36:00.937Z,21.17
2022-09-15T05:39:06.911Z,23.10
2022-09-15T05:42:12.785Z,21.30
2022-09-15T05:45:18.068Z,21.15
2022-09-15T05:48:24.977Z,30.40
2022-09-15T05:51:30.530Z,34.88
2022-09-15T05:54:36.023Z,26.25
2022-09-15T05:57:41.366Z,18.30
2022-09-15T06:00:47.018Z,23.13
2022-09-15T06:03:54.138Z,20.05
2022-09-15T06:06:59.698Z,30.77
2022-09-15T06:10:05.678Z,30.95
2022-09-15T06:13:10.950Z,39.35
2022-09-15T06:16:22.855Z,28.45
2022-09-15T06:19:28.659Z,31.92
2022-09-15T06:22:34.093Z,31.25
2022-09-15T06:25:39.621Z,36.78
2022-09-15T06:28:51.339Z,38.35
2022-09-15T06:32:03.418Z,37.83
2022-09-15T06:35:09.745Z,41.05
2022-09-15T06:38:15.927Z,39.72
2022-09-15T06:41:22.316Z,43.30
2022-09-15T06:44:28.243Z,43.33
2022-09-15T06:47:34.525Z,31.73
2022-09-15T06:50:39.868Z,37.70
2022-09-15T06:53:46.258Z,35.08
2022-09-15T06:56:51.623Z,38.47
2022-09-15T06:59:57.187Z,33.58
2022-09-15T07:03:03.251Z,33.17
2022-09-15T07:06:11.147Z,41.13
2022-09-15T07:09:16.896Z,34.30
2022-09-15T07:12:22.474Z,41.55
2022-09-15T07:15:28.128Z,35.55
2022-09-15T07:18:34.368Z,36.78
2022-09-15T07:21:39.867Z,36.83
2022-09-15T07:24:45.242Z,42.28
2022-09-15T07:27:50.385Z,33.78
2022-09-15T07:30:56.038Z,38.17
2022-09-15T07:34:02.836Z,37.28
2022-09-15T07:37:08.933Z,46.25
2022-09-15T07:40:14.938Z,44.35
2022-09-15T07:43:21.047Z,46.25
2022-09-15T07:46:29.863Z,40.85
2022-09-15T07:49:35.771Z,50.58
2022-09-15T07:52:41.448Z,63.22
2022-09-15T07:55:52.036Z,58.35
2022-09-15T07:58:58.105Z,53.92
2022-09-15T08:02:03.550Z,52.83
2022-09-15T08:05:09.344Z,45.67
2022-09-15T08:08:14.585Z,39.80
2022-09-15T08:11:21.563Z,48.75
2022-09-15T08:14:26.912Z,43.65
2022-09-15T08:17:34.597Z,40.85
2022-09-15T08:20:41.165Z,51.60
2022-09-15T08:23:56.190Z,41.13
2022-09-15T08:27:03.349Z,44.05
2022-09-15T08:30:09.700Z,40.50
2022-09-15T08:33:15.174Z,45.17
2022-09-15T08:36:20.823Z,37.53
2022-09-15T08:39:26.461Z,37.05
2022-09-15T08:42:32.402Z,37.90
2022-09-15T08:45:53.182Z,37.38
2022-09-15T08:49:11.033Z,34.47
2022-09-15T08:52:33.134Z,41.38
2022-09-15T08:55:51.026Z,36.55
2022-09-15T08:58:56.522Z,39.92
2022-09-15T09:02:26.915Z,39.65
2022-09-15T09:05:56.479Z,32.53
2022-09-15T09:09:16.984Z,26.25
2022-09-15T09:13:07.048Z,38.33
2022-09-15T09:16:30.533Z,34.50
2022-09-15T09:19:53.090Z,29.98
2022-09-15T09:23:01.734Z,28.75
2022-09-15T09:26:12.329Z,41.08
2022-09-15T09:29:30.484Z,29.08
2022-09-15T09:32:54.476Z,24.92
2022-09-15T09:36:02.687Z,26.13
2022-09-15T09:39:14.515Z,25.65
2022-09-15T09:42:29.512Z,22.77
2022-09-15T09:45:35.053Z,37.28
2022-09-15T09:48:43.960Z,21.50
2022-09-15T09:51:54.050Z,31.38
2022-09-15T09:55:16.742Z,21.65
2022-09-15T09:58:25.814Z,21.00
2022-09-15T10:01:31.631Z,25.80
2022-09-15T10:04:36.762Z,23.40
2022-09-15T10:07:46.770Z,19.65
2022-09-15T10:11:00.155Z,17.20
2022-09-15T10:14:06.827Z,22.70
2022-09-15T10:17:19.962Z,16.58
2022-09-15T10:20:36.240Z,12.85
2022-09-15T10:23:44.090Z,12.68
2022-09-15T10:26:49.609Z,14.75
2022-09-15T10:29:56.710Z,19.98
2022-09-15T10:33:24.894Z,9.98
2022-09-15T10:36:32.405Z,19.83
2022-09-15T10:40:00.877Z,17.73
2022-09-15T10:43:18.124Z,11.25
2022-09-15T10:47:01.244Z,5.88
2022-09-15T10:50:18.556Z,11.75
2022-09-15T10:53:29.782Z,7.72
2022-09-15T10:56:47.356Z,12.20
2022-09-15T11:00:12.880Z,13.00
2022-09-15T11:03:39.125Z,16.05
2022-09-15T11:07:07.625Z,7.50
2022-09-15T11:10:27.496Z,7.70
2022-09-15T11:13:56.419Z,9.07
2022-09-15T11:17:21.480Z,16.35
2022-09-15T11:20:56.831Z,10.07
2022-09-15T11:24:33.977Z,7.95
2022-09-15T11:28:00.376Z,11.88
2022-09-15T11:31:22.349Z,7.50
2022-09-15T11:34:39.447Z,11.65
2022-09-15T11:37:49.001Z,14.98
2022-09-15T11:41:09.665Z,6.55
2022-09-15T11:44:34.325Z,13.18
2022-09-15T11:47:52.045Z,12.48
2022-09-15T11:51:01.918Z,12.65
2022-09-15T11:54:24.621Z,7.68
2022-09-15T11:57:44.742Z,9.85
2022-09-15T12:01:11.157Z,13.82
2022-09-15T12:04:26.042Z,14.68
2022-09-15T12:07:38.036Z,19.65
2022-09-15T12:10:49.284Z,19.63
2022-09-15T12:13:56.507Z,6.32
2022-09-15T12:17:04.779Z,8.20
2022-09-15T12:20:27.242Z,14.40
2022-09-15T12:23:41.477Z,11.23
2022-09-15T12:26:47.965Z,18.40
2022-09-15T12:29:58.654Z,12.73
2022-09-15T12:33:42.420Z,11.48
2022-09-15T12:36:51.457Z,14.40
2022-09-15T12:39:57.199Z,15.25
2022-09-15T12:43:11.856Z,6.50
2022-09-15T12:46:18.967Z,11.40
2022-09-15T12:49:32.993Z,19.35
2022-09-15T12:52:46.136Z,21.20
2022-09-15T12:55:59.834Z,18.40
2022-09-15T12:59:07.321Z,11.77
2022-09-15T13:02:46.699Z,18.83
2022-09-15T13:06:11.810Z,23.60
2022-09-15T13:09:28.293Z,21.60
2022-09-15T13:12:38.950Z,8.55
2022-09-15T13:15:48.547Z,17.63
2022-09-15T13:19:17.793Z,12.70
2022-09-15T13:22:30.305Z,15.70
2022-09-15T13:25:40.330Z,19.63
2022-09-15T13:28:50.425Z,20.40
2022-09-15T13:32:18.824Z,11.23
2022-09-15T13:35:31.591Z,16.63
2022-09-15T13:38:56.797Z,17.33
2022-09-15T13:42:20.864Z,14.48
2022-09-15T13:45:47.287Z,8.25
2022-09-15T13:49:08.000Z,15.25
2022-09-15T13:52:24.590Z,19.15
2022-09-15T13:55:38.751Z,20.80
2022-09-15T13:59:07.041Z,26.60
2022-09-15T14:02:13.303Z,15.50
2022-09-15T14:05:20.502Z,17.80
2022-09-15T14:08:31.056Z,18.25
2022-09-15T14:11:38.188Z,18.55
2022-09-15T14:14:53.935Z,33.33
2022-09-15T14:17:59.307Z,14.85
2022-09-15T14:21:06.074Z,17.08
2022-09-15T14:24:21.415Z,25.02
2022-09-15T14:27:31.073Z,19.48
2022-09-15T14:30:37.064Z,16.15
2022-09-15T14:33:42.898Z,12.10
2022-09-15T14:37:06.231Z,17.38
2022-09-15T14:40:28.407Z,23.88
2022-09-15T14:43:36.469Z,18.65
2022-09-15T14:46:41.959Z,8.85
2022-09-15T14:49:48.447Z,15.02
2022-09-15T14:53:06.095Z,12.40
2022-09-15T14:56:25.229Z,21.35
2022-09-15T14:59:49.077Z,17.83
2022-09-15T15:03:03.630Z,11.85
2022-09-15T15:06:35.877Z,17.80
2022-09-15T15:09:57.026Z,11.00
2022-09-15T15:16:26.160Z,14.77
2022-09-15T15:19:41.123Z,12.80
2022-09-15T15:22:47.925Z,16.20
2022-09-15T15:25:55.020Z,12.73
2022-09-15T15:29:01.317Z,21.73
2022-09-15T15:32:12.930Z,18.38
2022-09-15T15:35:19.741Z,23.08
2022-09-15T15:38:27.400Z,40.70
2022-09-15T15:41:41.837Z,10.52
2022-09-15T15:45:02.731Z,21.02
2022-09-15T15:48:10.260Z,27.13
2022-09-15T15:51:16.413Z,12.00
2022-09-15T15:54:23.642Z,11.48
2022-09-15T15:57:34.670Z,15.27
2022-09-15T16:00:51.537Z,12.50
2022-09-15T16:03:56.713Z,16.35
2022-09-15T16:07:02.004Z,13.48
2022-09-15T16:10:09.194Z,16.25
2022-09-15T16:13:16.962Z,18.45
2022-09-15T16:16:25.406Z,18.40
2022-09-15T16:19:31.492Z,18.60
2022-09-15T16:22:38.333Z,19.25
2022-09-15T16:25:59.922Z,19.80
2022-09-15T16:29:06.225Z,22.02
2022-09-15T16:32:21.912Z,19.85
2022-09-15T16:35:37.422Z,13.50
2022-09-15T16:38:44.644Z,17.10
2022-09-15T16:41:50.813Z,22.02
2022-09-15T16:44:56.813Z,28.38
2022-09-15T16:48:02.854Z,31.83
2022-09-15T16:51:30.989Z,18.08
2022-09-15T16:54:38.347Z,14.52
2022-09-15T16:57:43.906Z,13.65
2022-09-15T17:00:54.220Z,23.52
2022-09-15T17:03:59.877Z,35.30
2022-09-15T17:07:05.407Z,37.05
2022-09-15T17:10:10.955Z,24.88
2022-09-15T17:13:21.191Z,54.28
2022-09-15T17:16:27.901Z,40.78
2022-09-15T17:19:33.612Z,32.97
2022-09-15T17:22:39.015Z,38.83
2022-09-15T17:25:49.282Z,38.35
2022-09-15T17:28:55.688Z,23.60
2022-09-15T17:32:01.868Z,40.60
2022-09-15T17:35:27.812Z,23.88
2022-09-15T17:38:33.878Z,21.08
2022-09-15T17:41:39.144Z,23.80
2022-09-15T17:44:44.877Z,11.95
2022-09-15T17:47:52.132Z,10.82
2022-09-15T17:50:57.765Z,11.00
2022-09-15T17:54:03.594Z,19.75
2022-09-15T17:57:09.997Z,20.90
2022-09-15T18:00:17.801Z,27.30
2022-09-15T18:03:33.592Z,26.45
2022-09-15T18:06:45.259Z,31.13
2022-09-15T18:09:51.081Z,35.25
2022-09-15T18:12:57.576Z,20.90
2022-09-15T18:16:08.720Z,21.70
2022-09-15T18:19:15.182Z,71.40
2022-09-15T18:22:24.068Z,82.30
2022-09-15T18:25:37.225Z,48.47
2022-09-15T18:28:44.047Z,49.55
2022-09-15T18:31:51.509Z,55.65
2022-09-15T18:34:56.907Z,52.13
2022-09-15T18:38:02.182Z,47.95
2022-09-15T18:41:12.015Z,40.25
2022-09-15T18:44:17.606Z,42.33
2022-09-15T18:47:22.955Z,67.45
2022-09-15T18:50:28.430Z,83.93
2022-09-15T18:53:36.015Z,60.13
2022-09-15T18:56:41.290Z,61.78
2022-09-15T18:59:47.883Z,42.30
2022-09-15T19:03:01.620Z,35.78
2022-09-15T19:06:07.833Z,29.02
2022-09-15T19:09:13.602Z,32.30
2022-09-15T19:15:31.606Z,22.52
2022-09-15T19:18:37.424Z,27.70
2022-09-15T19:21:42.833Z,26.23
2022-09-15T19:24:48.427Z,22.05
2022-09-15T19:27:53.972Z,19.52
2022-09-15T19:30:59.800Z,13.52
2022-09-15T19:34:06.951Z,16.17
2022-09-15T19:37:18.345Z,22.20
2022-09-15T19:40:24.807Z,11.13
2022-09-15T19:43:30.620Z,19.23
2022-09-15T19:46:36.126Z,26.50
2022-09-15T19:49:41.877Z,13.82
2022-09-15T19:52:47.375Z,14.15
2022-09-15T19:55:53.019Z,17.33
2022-09-15T19:59:00.172Z,14.75
2022-09-15T20:02:05.958Z,20.33
2022-09-15T20:08:36.951Z,15.27
2022-09-15T20:11:42.227Z,19.40
2022-09-15T20:14:47.897Z,23.85
2022-09-15T20:17:53.058Z,19.60
2022-09-15T20:21:00.137Z,28.58
2022-09-15T20:24:06.247Z,29.60
2022-09-15T20:27:12.435Z,29.13
2022-09-15T20:30:18.493Z,30.65
2022-09-15T20:33:26.681Z,30.75
2022-09-15T20:36:36.846Z,33.50
2022-09-15T20:39:42.588Z,24.35
2022-09-15T20:42:50.597Z,29.90
2022-09-15T20:46:01.775Z,18.88
2022-09-15T20:49:07.164Z,23.95
2022-09-15T20:52:12.798Z,26.90
2022-09-15T20:55:18.222Z,25.63
2022-09-15T20:58:24.899Z,14.98
2022-09-15T21:01:37.047Z,14.98
2022-09-15T21:04:44.155Z,20.48
2022-09-15T21:07:49.441Z,18.55
2022-09-15T21:10:56.134Z,13.75
2022-09-15T21:14:01.800Z,20.55
2022-09-15T21:17:08.226Z,22.98
2022-09-15T21:20:14.228Z,21.60
2022-09-15T21:23:20.251Z,36.67
2022-09-15T21:26:28.185Z,34.60
2022-09-15T21:29:34.692Z,45.97
2022-09-15T21:32:40.463Z,37.42
2022-09-15T21:35:49.333Z,42.20
2022-09-15T21:38:56.764Z,48.65
2022-09-15T21:42:02.168Z,59.88
2022-09-15T21:45:08.925Z,50.90
2022-09-15T21:48:14.855Z,44.03
2022-09-15T21:51:24.990Z,42.05
2022-09-15T21:54:32.175Z,34.55
2022-09-15T21:57:37.586Z,44.33
2022-09-15T22:00:42.973Z,33.10
2022-09-15T22:03:54.059Z,29.55
2022-09-15T22:06:59.333Z,19.75
2022-09-15T22:10:05.459Z,22.88
2022-09-15T22:13:12.129Z,33.15
2022-09-15T22:16:20.428Z,20.27
2022-09-15T22:19:26.015Z,29.27
2022-09-15T22:22:32.227Z,20.08
2022-09-15T22:25:37.943Z,25.25
2022-09-15T22:28:43.814Z,16.35
2022-09-15T22:31:49.106Z,19.02
2022-09-15T22:34:55.224Z,13.35
2022-09-15T22:38:00.824Z,18.30
2022-09-15T22:41:09.673Z,14.18
2022-09-15T22:44:20.651Z,23.00
2022-09-15T22:47:26.120Z,30.00
2022-09-15T22:50:31.678Z,32.20
2022-09-15T22:53:37.204Z,24.90
2022-09-15T22:56:43.063Z,22.52
2022-09-15T22:59:48.483Z,25.63
2022-09-15T23:02:54.400Z,18.10
2022-09-15T23:06:00.978Z,16.00
2022-09-15T23:09:11.296Z,19.30
2022-09-15T23:12:16.887Z,22.02
2022-09-15T23:15:22.660Z,21.20
2022-09-15T23:18:29.084Z,18.33
2022-09-15T23:21:35.314Z,17.95
2022-09-15T23:24:41.467Z,16.52
2022-09-15T23:27:47.335Z,15.85
2022-09-15T23:30:55.189Z,12.40
2022-09-15T23:34:00.897Z,23.67
2022-09-15T23:37:06.185Z,14.40
2022-09-15T23:40:12.593Z,17.15
2022-09-15T23:43:18.521Z,19.60
2022-09-15T23:46:24.203Z,13.60
2022-09-15T23:49:30.055Z,17.40
2022-09-15T23:52:35.733Z,20.80
2022-09-15T23:55:41.300Z,19.58
2022-09-15T23:58:47.100Z,18.50
